createdAt,value
2023-04-18T00:01:19.053Z,13.23
2023-04-18T00:03:47.818Z,12.82
2023-04-18T00:06:15.244Z,12.05
2023-04-18T00:08:42.538Z,13.20
2023-04-18T00:11:09.843Z,11.75
2023-04-18T00:13:38.857Z,15.50
2023-04-18T00:16:08.504Z,14.35
2023-04-18T00:18:37.527Z,17.02
2023-04-18T00:21:05.280Z,14.18
2023-04-18T00:23:34.684Z,17.15
2023-04-18T00:26:02.660Z,15.52
2023-04-18T00:28:30.097Z,17.08
2023-04-18T00:30:57.499Z,15.48
2023-04-18T00:33:24.819Z,14.90
2023-04-18T00:35:52.720Z,16.33
2023-04-18T00:38:20.169Z,17.17
2023-04-18T00:40:48.721Z,16.58
2023-04-18T00:43:17.338Z,14.75
2023-04-18T00:45:44.897Z,15.00
2023-04-18T00:48:12.390Z,14.75
2023-04-18T00:50:42.043Z,18.17
2023-04-18T00:53:11.465Z,16.40
2023-04-18T00:55:39.280Z,15.65
2023-04-18T00:58:06.759Z,16.92
2023-04-18T01:00:34.589Z,19.45
2023-04-18T01:03:02.045Z,18.63
2023-04-18T01:05:29.537Z,17.02
2023-04-18T01:08:01.450Z,18.63
2023-04-18T01:10:31.217Z,19.80
2023-04-18T01:13:15.307Z,22.65
2023-04-18T01:15:44.389Z,19.27
2023-04-18T01:18:13.539Z,20.20
2023-04-18T01:20:44.223Z,21.70
2023-04-18T01:23:11.619Z,19.23
2023-04-18T01:25:39.557Z,23.08
2023-04-18T01:28:07.256Z,20.85
2023-04-18T01:30:35.047Z,20.15
2023-04-18T01:33:04.722Z,21.15
2023-04-18T01:35:33.845Z,22.65
2023-04-18T01:38:01.541Z,20.45
2023-04-18T01:40:30.511Z,20.50
2023-04-18T01:42:57.863Z,22.50
2023-04-18T01:45:25.450Z,21.17
2023-04-18T01:47:52.835Z,23.23
2023-04-18T01:50:20.308Z,21.55
2023-04-18T01:52:48.311Z,22.73
2023-04-18T01:55:16.737Z,23.63
2023-04-18T01:57:44.423Z,24.52
2023-04-18T02:00:12.447Z,24.10
2023-04-18T02:02:43.142Z,25.08
2023-04-18T02:05:11.082Z,24.55
2023-04-18T02:07:41.499Z,25.20
2023-04-18T02:10:10.854Z,28.13
2023-04-18T02:12:38.206Z,25.00
2023-04-18T02:15:06.130Z,26.27
2023-04-18T02:17:36.694Z,26.48
2023-04-18T02:20:04.708Z,28.25
2023-04-18T02:22:32.171Z,24.65
2023-04-18T02:25:01.048Z,26.20
2023-04-18T02:27:28.539Z,27.33
2023-04-18T02:29:57.903Z,28.25
2023-04-18T02:32:25.438Z,27.90
2023-04-18T02:34:52.752Z,28.25
2023-04-18T02:37:20.081Z,26.50
2023-04-18T02:39:47.399Z,27.95
2023-04-18T02:42:14.773Z,28.35
2023-04-18T02:44:42.170Z,25.60
2023-04-18T02:47:10.189Z,26.50
2023-04-18T02:49:41.308Z,24.52
2023-04-18T02:52:08.779Z,27.75
2023-04-18T02:54:36.181Z,25.70
2023-04-18T02:57:11.400Z,25.48
2023-04-18T02:59:47.816Z,26.52
2023-04-18T03:02:26.940Z,26.73
2023-04-18T03:07:27.389Z,25.45
2023-04-18T03:09:54.981Z,27.55
2023-04-18T03:12:26.816Z,26.33
2023-04-18T03:14:54.197Z,27.40
2023-04-18T03:17:22.185Z,26.08
2023-04-18T03:19:50.270Z,26.40
2023-04-18T03:22:20.218Z,27.80
2023-04-18T03:24:55.404Z,27.77
2023-04-18T03:27:32.439Z,26.20
2023-04-18T03:30:00.499Z,28.50
2023-04-18T03:32:28.105Z,29.05
2023-04-18T03:34:55.372Z,30.17
2023-04-18T03:37:22.849Z,29.60
2023-04-18T03:39:54.960Z,28.38
2023-04-18T03:42:25.286Z,31.17
2023-04-18T03:44:52.588Z,29.08
2023-04-18T03:47:20.055Z,27.98
2023-04-18T03:49:51.476Z,26.23
2023-04-18T03:52:20.612Z,31.95
2023-04-18T03:54:47.873Z,27.20
2023-04-18T03:57:17.299Z,25.73
2023-04-18T03:59:46.069Z,26.67
2023-04-18T04:02:15.082Z,26.88
2023-04-18T04:04:43.244Z,28.27
2023-04-18T04:07:12.446Z,28.08
2023-04-18T04:09:39.740Z,28.25
2023-04-18T04:12:07.193Z,26.63
2023-04-18T04:14:34.895Z,28.52
2023-04-18T04:17:02.832Z,26.98
2023-04-18T04:19:31.292Z,27.77
2023-04-18T04:22:16.019Z,27.83
2023-04-18T04:24:43.414Z,29.55
2023-04-18T04:27:14.128Z,27.30
2023-04-18T04:29:44.088Z,29.30
2023-04-18T04:32:13.355Z,28.45
2023-04-18T04:34:42.013Z,30.48
2023-04-18T04:37:14.384Z,31.90
2023-04-18T04:39:57.345Z,30.10
2023-04-18T04:42:56.686Z,29.77
2023-04-18T04:45:30.588Z,27.30
2023-04-18T04:47:57.936Z,26.20
2023-04-18T04:50:25.941Z,28.35
2023-04-18T04:52:53.225Z,30.50
2023-04-18T04:55:20.667Z,28.27
2023-04-18T04:57:48.210Z,30.48
2023-04-18T05:00:30.292Z,28.50
2023-04-18T05:02:58.007Z,27.08
2023-04-18T05:05:27.126Z,28.00
2023-04-18T05:07:55.043Z,28.55
2023-04-18T05:10:22.414Z,27.85
2023-04-18T05:12:49.785Z,25.23
2023-04-18T05:15:17.246Z,27.90
2023-04-18T05:17:44.750Z,25.38
2023-04-18T05:20:12.345Z,26.15
2023-04-18T05:22:40.089Z,26.02
2023-04-18T05:25:08.571Z,28.38
2023-04-18T05:27:35.869Z,25.05
2023-04-18T05:30:03.290Z,27.00
2023-04-18T05:32:30.720Z,25.25
2023-04-18T05:34:58.028Z,22.10
2023-04-18T05:37:25.741Z,21.50
2023-04-18T05:39:53.039Z,18.83
2023-04-18T05:42:20.387Z,20.35
2023-04-18T05:44:47.620Z,18.92
2023-04-18T05:47:14.954Z,19.88
2023-04-18T05:49:42.280Z,19.15
2023-04-18T05:52:09.724Z,20.27
2023-04-18T05:54:36.965Z,19.20
2023-04-18T05:57:04.769Z,18.73
2023-04-18T05:59:32.208Z,19.48
2023-04-18T06:01:59.669Z,18.75
2023-04-18T06:04:27.164Z,19.55
2023-04-18T06:06:54.545Z,20.73
2023-04-18T06:09:21.886Z,21.60
2023-04-18T06:11:49.111Z,19.75
2023-04-18T06:14:16.529Z,19.63
2023-04-18T06:16:45.235Z,17.23
2023-04-18T06:19:12.448Z,16.02
2023-04-18T06:21:42.359Z,15.50
2023-04-18T06:24:09.995Z,16.38
2023-04-18T06:26:37.474Z,16.40
2023-04-18T06:29:04.751Z,17.20
2023-04-18T06:31:32.092Z,16.17
2023-04-18T06:33:59.308Z,16.70
2023-04-18T06:36:27.979Z,15.90
2023-04-18T06:38:55.480Z,15.35
2023-04-18T06:41:23.266Z,14.30
2023-04-18T06:44:02.595Z,15.40
2023-04-18T06:46:31.517Z,15.95
2023-04-18T06:48:59.135Z,14.95
2023-04-18T06:51:26.595Z,13.98
2023-04-18T06:53:54.120Z,16.30
2023-04-18T06:56:21.550Z,15.80
2023-04-18T06:58:49.643Z,15.25
2023-04-18T07:01:17.067Z,16.35
2023-04-18T07:03:44.585Z,16.75
2023-04-18T07:06:12.113Z,16.23
2023-04-18T07:08:39.496Z,14.90
2023-04-18T07:11:07.202Z,16.95
2023-04-18T07:13:34.421Z,16.05
2023-04-18T07:16:01.928Z,15.43
2023-04-18T07:18:37.161Z,16.25
2023-04-18T07:21:08.090Z,15.05
2023-04-18T07:23:36.052Z,18.08
2023-04-18T07:26:03.770Z,15.63
2023-04-18T07:28:32.339Z,15.00
2023-04-18T07:31:00.000Z,15.35
2023-04-18T07:33:27.378Z,17.80
2023-04-18T07:35:54.670Z,16.67
2023-04-18T07:38:21.902Z,18.45
2023-04-18T07:40:59.834Z,17.48
2023-04-18T07:43:27.256Z,18.50
2023-04-18T07:45:54.921Z,17.52
2023-04-18T07:48:31.190Z,17.88
2023-04-18T07:50:58.868Z,19.15
2023-04-18T07:53:26.368Z,20.48
2023-04-18T07:55:55.009Z,17.02
2023-04-18T07:58:22.451Z,19.25
2023-04-18T08:00:49.745Z,21.50
2023-04-18T08:03:17.241Z,16.05
2023-04-18T08:05:44.625Z,17.90
2023-04-18T08:08:12.709Z,16.20
2023-04-18T08:10:40.126Z,16.58
2023-04-18T08:13:07.753Z,15.07
2023-04-18T08:15:35.016Z,14.65
2023-04-18T08:18:02.610Z,17.13
2023-04-18T08:20:30.101Z,18.38
2023-04-18T08:23:07.472Z,15.18
2023-04-18T08:25:36.840Z,18.27
2023-04-18T08:28:04.751Z,17.63
2023-04-18T08:30:32.276Z,15.88
2023-04-18T08:33:00.922Z,15.45
2023-04-18T08:35:28.506Z,14.82
2023-04-18T08:37:55.979Z,16.23
2023-04-18T08:40:23.525Z,15.65
2023-04-18T08:42:53.287Z,16.50
2023-04-18T08:45:21.187Z,14.52
2023-04-18T08:47:48.641Z,14.70
2023-04-18T08:50:17.068Z,14.80
2023-04-18T08:52:50.452Z,16.35
2023-04-18T08:55:19.369Z,16.05
2023-04-18T08:57:47.873Z,15.65
2023-04-18T09:00:18.335Z,17.35
2023-04-18T09:02:47.581Z,16.10
2023-04-18T09:05:19.258Z,17.67
2023-04-18T09:07:48.182Z,16.23
2023-04-18T09:10:33.594Z,17.52
2023-04-18T09:13:05.976Z,14.93
2023-04-18T09:15:33.346Z,17.00
2023-04-18T09:18:03.465Z,16.35
2023-04-18T09:20:38.311Z,17.10
2023-04-18T09:23:16.578Z,17.25
2023-04-18T09:25:48.992Z,15.15
2023-04-18T09:28:29.256Z,14.10
2023-04-18T09:30:57.505Z,14.55
2023-04-18T09:33:35.018Z,16.63
2023-04-18T09:36:21.582Z,16.08
2023-04-18T09:38:50.893Z,15.07
2023-04-18T09:41:21.416Z,15.20
2023-04-18T09:43:49.262Z,15.57
2023-04-18T09:46:18.187Z,17.05
2023-04-18T09:48:45.918Z,16.40
2023-04-18T09:51:17.019Z,16.02
2023-04-18T09:53:45.340Z,14.65
2023-04-18T09:56:23.609Z,14.32
2023-04-18T09:58:57.465Z,13.73
2023-04-18T10:01:29.533Z,14.43
2023-04-18T10:03:58.123Z,14.52
2023-04-18T10:06:27.732Z,15.27
2023-04-18T10:08:56.304Z,15.77
2023-04-18T10:11:24.800Z,16.13
2023-04-18T10:13:57.921Z,13.93
2023-04-18T10:16:26.459Z,13.25
2023-04-18T10:18:53.854Z,14.20
2023-04-18T10:21:22.302Z,14.48
2023-04-18T10:23:50.657Z,11.88
2023-04-18T10:26:18.044Z,13.57
2023-04-18T10:28:53.849Z,12.27
2023-04-18T10:31:23.043Z,11.88
2023-04-18T10:34:18.479Z,10.25
2023-04-18T10:37:04.803Z,10.25
2023-04-18T10:39:51.360Z,10.23
2023-04-18T10:42:18.763Z,10.63
2023-04-18T10:45:22.419Z,10.57
2023-04-18T10:47:50.293Z,10.45
2023-04-18T10:50:18.103Z,11.05
2023-04-18T10:52:45.495Z,10.63
2023-04-18T10:55:24.732Z,10.70
2023-04-18T10:57:52.197Z,12.00
2023-04-18T11:00:22.041Z,11.02
2023-04-18T11:03:00.809Z,11.15
2023-04-18T11:05:29.576Z,10.20
2023-04-18T11:07:57.019Z,10.50
2023-04-18T11:10:27.068Z,13.02
2023-04-18T11:12:55.612Z,11.88
2023-04-18T11:15:25.045Z,12.43
2023-04-18T11:18:10.519Z,12.38
2023-04-18T11:20:47.792Z,10.38
2023-04-18T11:23:21.778Z,10.48
2023-04-18T11:25:54.760Z,11.55
2023-04-18T11:28:22.913Z,13.00
2023-04-18T11:30:50.219Z,15.25
2023-04-18T11:33:17.598Z,11.82
2023-04-18T11:35:46.503Z,11.73
2023-04-18T11:38:16.573Z,11.75
2023-04-18T11:40:51.322Z,13.63
2023-04-18T11:43:25.981Z,12.18
2023-04-18T11:45:57.104Z,12.65
2023-04-18T11:48:25.266Z,13.32
2023-04-18T11:50:52.489Z,10.20
2023-04-18T11:53:37.222Z,10.20
2023-04-18T11:56:05.379Z,10.85
2023-04-18T11:58:37.045Z,11.52
2023-04-18T12:01:36.849Z,10.80
2023-04-18T12:04:06.241Z,10.23
2023-04-18T12:06:50.791Z,12.48
2023-04-18T12:09:19.352Z,11.55
2023-04-18T12:12:06.971Z,12.05
2023-04-18T12:14:36.340Z,11.98
2023-04-18T12:17:04.246Z,10.68
2023-04-18T12:19:33.165Z,10.05
2023-04-18T12:22:03.526Z,9.95
2023-04-18T12:24:32.732Z,10.23
2023-04-18T12:27:00.469Z,8.05
2023-04-18T12:29:29.493Z,9.68
2023-04-18T12:31:57.106Z,8.13
2023-04-18T12:34:24.437Z,13.93
2023-04-18T12:36:52.732Z,11.35
2023-04-18T12:39:20.106Z,11.23
2023-04-18T12:41:49.668Z,11.50
2023-04-18T12:44:17.686Z,12.65
2023-04-18T12:46:48.476Z,10.82
2023-04-18T12:49:16.187Z,10.77
2023-04-18T12:51:44.005Z,11.18
2023-04-18T12:54:11.577Z,11.68
2023-04-18T12:56:39.037Z,12.85
2023-04-18T12:59:06.282Z,10.27
2023-04-18T13:01:33.618Z,9.57
2023-04-18T13:04:11.832Z,10.93
2023-04-18T13:06:40.834Z,11.35
2023-04-18T13:09:08.516Z,12.43
2023-04-18T13:11:35.892Z,11.30
2023-04-18T13:14:03.127Z,11.48
2023-04-18T13:16:30.440Z,12.18
2023-04-18T13:19:00.772Z,12.18
2023-04-18T13:21:28.556Z,11.88
2023-04-18T13:23:55.897Z,10.82
2023-04-18T13:26:23.186Z,13.02
2023-04-18T13:28:50.614Z,11.63
2023-04-18T13:31:17.861Z,12.10
2023-04-18T13:33:45.220Z,11.23
2023-04-18T13:36:12.573Z,12.65
2023-04-18T13:38:40.250Z,11.55
2023-04-18T13:41:12.899Z,10.55
2023-04-18T13:43:41.179Z,8.85
2023-04-18T13:46:08.503Z,7.75
2023-04-18T13:48:35.947Z,9.25
2023-04-18T13:51:03.534Z,7.55
2023-04-18T13:53:31.250Z,8.43
2023-04-18T13:55:58.973Z,9.45
2023-04-18T13:58:26.310Z,8.15
2023-04-18T14:00:54.289Z,7.25
2023-04-18T14:03:21.666Z,8.27
2023-04-18T14:05:48.974Z,8.68
2023-04-18T14:08:16.266Z,8.43
2023-04-18T14:10:43.579Z,9.50
2023-04-18T14:13:10.968Z,7.93
2023-04-18T14:15:38.230Z,8.85
2023-04-18T14:18:05.648Z,9.65
2023-04-18T14:20:35.175Z,9.73
2023-04-18T14:23:02.442Z,8.23
2023-04-18T14:25:30.509Z,11.73
2023-04-18T14:28:09.939Z,10.32
2023-04-18T14:30:38.627Z,11.02
2023-04-18T14:33:06.505Z,11.35
2023-04-18T14:35:33.951Z,10.15
2023-04-18T14:38:01.350Z,12.40
2023-04-18T14:40:29.512Z,10.95
2023-04-18T14:42:58.260Z,13.38
2023-04-18T14:45:25.557Z,12.35
2023-04-18T14:47:54.046Z,10.32
2023-04-18T14:50:21.542Z,12.48
2023-04-18T14:52:48.882Z,12.07
2023-04-18T14:55:16.278Z,13.23
2023-04-18T14:57:43.606Z,12.88
2023-04-18T15:00:12.196Z,11.93
2023-04-18T15:02:40.061Z,12.23
2023-04-18T15:05:08.871Z,12.98
2023-04-18T15:07:38.369Z,13.88
2023-04-18T15:10:06.409Z,15.88
2023-04-18T15:12:33.757Z,12.80
2023-04-18T15:15:01.037Z,12.20
2023-04-18T15:17:28.775Z,14.63
2023-04-18T15:19:55.979Z,11.25
2023-04-18T15:22:23.436Z,11.63
2023-04-18T15:24:51.015Z,11.63
2023-04-18T15:27:18.260Z,11.25
2023-04-18T15:29:45.822Z,9.07
2023-04-18T15:32:14.882Z,9.40
2023-04-18T15:34:42.167Z,9.77
2023-04-18T15:37:09.899Z,10.25
2023-04-18T15:39:37.473Z,9.38
2023-04-18T15:42:04.892Z,10.57
2023-04-18T15:44:32.199Z,10.23
2023-04-18T15:47:01.968Z,10.45
2023-04-18T15:49:29.271Z,11.23
2023-04-18T15:51:57.243Z,11.10
2023-04-18T15:54:24.505Z,9.38
2023-04-18T15:56:52.023Z,10.80
2023-04-18T15:59:19.389Z,9.88
2023-04-18T16:01:46.672Z,10.25
2023-04-18T16:04:14.315Z,11.05
2023-04-18T16:06:42.148Z,12.10
2023-04-18T16:09:10.244Z,11.80
2023-04-18T16:11:37.511Z,11.82
2023-04-18T16:14:04.816Z,10.80
2023-04-18T16:16:32.362Z,10.38
2023-04-18T16:18:59.701Z,13.18
2023-04-18T16:21:28.622Z,11.00
2023-04-18T16:23:56.005Z,12.38
2023-04-18T16:26:25.475Z,12.60
2023-04-18T16:28:52.749Z,13.30
2023-04-18T16:31:20.095Z,11.55
2023-04-18T16:33:47.441Z,13.02
2023-04-18T16:36:14.803Z,11.80
2023-04-18T16:38:42.074Z,10.63
2023-04-18T16:41:09.678Z,11.32
2023-04-18T16:43:38.296Z,12.90
2023-04-18T16:46:06.057Z,13.95
2023-04-18T16:48:33.543Z,11.25
2023-04-18T16:51:00.881Z,11.15
2023-04-18T16:53:28.275Z,9.93
2023-04-18T16:55:55.613Z,11.05
2023-04-18T16:58:23.865Z,10.68
2023-04-18T17:00:51.448Z,10.88
2023-04-18T17:03:18.866Z,9.43
2023-04-18T17:05:46.889Z,10.20
2023-04-18T17:08:14.089Z,11.10
2023-04-18T17:10:41.453Z,11.52
2023-04-18T17:13:08.686Z,10.98
2023-04-18T17:15:36.886Z,10.43
2023-04-18T17:18:04.456Z,9.05
2023-04-18T17:20:31.805Z,10.27
2023-04-18T17:22:59.201Z,10.77
2023-04-18T17:25:26.504Z,10.60
2023-04-18T17:27:53.804Z,13.05
2023-04-18T17:30:21.260Z,10.80
2023-04-18T17:32:49.550Z,10.55
2023-04-18T17:35:17.133Z,10.80
2023-04-18T17:37:44.480Z,12.27
2023-04-18T17:40:12.357Z,11.13
2023-04-18T17:42:39.870Z,11.23
2023-04-18T17:45:08.888Z,10.77
2023-04-18T17:47:37.033Z,10.85
2023-04-18T17:50:05.090Z,12.02
2023-04-18T17:52:32.823Z,10.60
2023-04-18T17:55:02.078Z,10.77
2023-04-18T17:57:31.073Z,10.10
2023-04-18T17:59:58.295Z,10.10
2023-04-18T18:02:25.756Z,9.45
2023-04-18T18:04:53.254Z,9.98
2023-04-18T18:07:20.586Z,10.18
2023-04-18T18:09:47.818Z,9.95
2023-04-18T18:12:15.123Z,10.70
2023-04-18T18:14:42.409Z,11.07
2023-04-18T18:17:09.721Z,10.15
2023-04-18T18:19:37.115Z,11.25
2023-04-18T18:22:04.512Z,11.85
2023-04-18T18:24:31.819Z,9.90
2023-04-18T18:26:59.359Z,10.35
2023-04-18T18:29:26.657Z,13.65
2023-04-18T18:31:53.960Z,12.40
2023-04-18T18:34:21.940Z,12.88
2023-04-18T18:36:49.258Z,11.73
2023-04-18T18:39:16.914Z,11.00
2023-04-18T18:41:44.369Z,12.65
2023-04-18T18:44:12.560Z,11.95
2023-04-18T18:46:41.102Z,13.13
2023-04-18T18:49:10.276Z,14.85
2023-04-18T18:51:37.581Z,14.60
2023-04-18T18:54:04.823Z,14.10
2023-04-18T18:56:32.138Z,13.93
2023-04-18T18:58:59.379Z,12.52
2023-04-18T19:01:26.702Z,13.65
2023-04-18T19:03:54.131Z,11.70
2023-04-18T19:06:21.501Z,12.73
2023-04-18T19:08:48.675Z,14.13
2023-04-18T19:11:16.673Z,12.60
2023-04-18T19:13:43.934Z,13.32
2023-04-18T19:16:11.466Z,11.68
2023-04-18T19:18:39.052Z,13.10
2023-04-18T19:21:06.340Z,12.75
2023-04-18T19:23:33.583Z,14.27
2023-04-18T19:26:00.860Z,13.50
2023-04-18T19:28:28.191Z,12.65
2023-04-18T19:30:55.589Z,13.75
2023-04-18T19:33:25.370Z,12.32
2023-04-18T19:35:52.611Z,15.05
2023-04-18T19:38:20.182Z,13.68
2023-04-18T19:40:47.604Z,11.35
2023-04-18T19:43:14.983Z,12.05
2023-04-18T19:45:42.354Z,12.77
2023-04-18T19:48:09.699Z,13.23
2023-04-18T19:50:40.792Z,12.90
2023-04-18T19:53:08.570Z,13.77
2023-04-18T19:55:35.909Z,12.82
2023-04-18T19:58:03.364Z,12.52
2023-04-18T20:00:30.821Z,13.57
2023-04-18T20:02:59.657Z,13.07
2023-04-18T20:05:27.071Z,14.60
2023-04-18T20:07:54.415Z,14.32
2023-04-18T20:10:22.584Z,14.98
2023-04-18T20:12:50.255Z,14.13
2023-04-18T20:15:17.697Z,15.65
2023-04-18T20:17:45.093Z,14.18
2023-04-18T20:20:13.425Z,13.93
2023-04-18T20:22:42.172Z,13.93
2023-04-18T20:25:09.465Z,15.95
2023-04-18T20:27:36.756Z,15.25
2023-04-18T20:30:04.931Z,15.75
2023-04-18T20:32:32.606Z,16.23
2023-04-18T20:35:00.362Z,13.52
2023-04-18T20:37:28.060Z,14.07
2023-04-18T20:39:56.216Z,14.23
2023-04-18T20:42:24.028Z,15.23
2023-04-18T20:44:51.690Z,11.23
2023-04-18T20:47:19.073Z,15.88
2023-04-18T20:49:46.622Z,16.73
2023-04-18T20:52:14.738Z,13.60
2023-04-18T20:54:42.165Z,16.20
2023-04-18T20:57:09.574Z,16.77
2023-04-18T20:59:39.935Z,14.85
2023-04-18T21:02:08.531Z,12.38
2023-04-18T21:04:36.746Z,14.02
2023-04-18T21:07:04.244Z,14.90
2023-04-18T21:09:36.742Z,12.77
2023-04-18T21:14:31.849Z,11.73
2023-04-18T21:16:59.357Z,14.80
2023-04-18T21:19:26.710Z,12.93
2023-04-18T21:21:54.050Z,14.13
2023-04-18T21:24:21.311Z,14.38
2023-04-18T21:26:48.572Z,14.73
2023-04-18T21:29:16.110Z,12.60
2023-04-18T21:31:43.513Z,11.73
2023-04-18T21:34:11.621Z,13.25
2023-04-18T21:36:40.454Z,11.80
2023-04-18T21:39:08.679Z,10.00
2023-04-18T21:41:36.170Z,12.52
2023-04-18T21:44:03.770Z,12.85
2023-04-18T21:46:31.030Z,11.88
2023-04-18T21:48:58.285Z,14.02
2023-04-18T21:51:25.599Z,12.35
2023-04-18T21:53:53.187Z,11.63
2023-04-18T21:56:20.473Z,12.90
2023-04-18T21:58:48.089Z,12.07
2023-04-18T22:01:15.331Z,14.02
2023-04-18T22:03:42.884Z,12.90
2023-04-18T22:06:10.748Z,12.23
2023-04-18T22:08:38.040Z,12.95
2023-04-18T22:11:05.529Z,11.65
2023-04-18T22:13:36.021Z,12.18
2023-04-18T22:16:04.235Z,13.60
2023-04-18T22:18:35.252Z,11.18
2023-04-18T22:21:04.182Z,10.75
2023-04-18T22:23:31.812Z,10.77
2023-04-18T22:25:58.968Z,12.02
2023-04-18T22:28:28.351Z,10.98
2023-04-18T22:30:55.718Z,11.45
2023-04-18T22:33:23.253Z,10.10
2023-04-18T22:35:50.640Z,11.48
2023-04-18T22:38:17.959Z,11.02
2023-04-18T22:40:45.142Z,11.90
2023-04-18T22:43:12.420Z,11.85
2023-04-18T22:45:39.766Z,9.93
2023-04-18T22:48:11.819Z,10.23
2023-04-18T22:50:42.985Z,11.35
2023-04-18T22:53:15.472Z,9.63
2023-04-18T22:55:44.570Z,10.93
2023-04-18T22:58:12.472Z,11.77
2023-04-18T23:00:39.905Z,13.80
2023-04-18T23:03:07.351Z,11.07
2023-04-18T23:05:35.044Z,12.00
2023-04-18T23:08:02.323Z,10.57
2023-04-18T23:10:29.715Z,12.27
2023-04-18T23:12:57.006Z,11.00
2023-04-18T23:15:24.497Z,11.90
2023-04-18T23:17:53.379Z,11.68
2023-04-18T23:20:21.729Z,11.90
2023-04-18T23:22:52.072Z,13.10
2023-04-18T23:25:22.468Z,11.27
2023-04-18T23:27:49.742Z,12.55
2023-04-18T23:30:17.556Z,11.15
2023-04-18T23:32:45.419Z,10.30
2023-04-18T23:35:12.770Z,11.20
2023-04-18T23:37:40.173Z,10.43
2023-04-18T23:40:08.248Z,11.65
2023-04-18T23:42:36.173Z,11.35
2023-04-18T23:45:04.398Z,10.70
2023-04-18T23:47:31.984Z,10.60
2023-04-18T23:49:59.309Z,10.98
2023-04-18T23:52:26.602Z,11.73
2023-04-18T23:54:53.840Z,11.27
2023-04-18T23:57:21.048Z,11.02
2023-04-18T23:59:48.291Z,11.70
